createdAt,value
2022-08-03T00:00:40.036Z,100418.49
2022-08-03T00:03:08.197Z,100416.67
2022-08-03T00:06:03.564Z,100417.89
2022-08-03T00:08:30.936Z,100421.75
2022-08-03T00:11:00.330Z,100422.36
2022-08-03T00:13:28.512Z,100423.27
2022-08-03T00:15:56.565Z,100423.92
2022-08-03T00:18:24.947Z,100429.34
2022-08-03T00:20:53.268Z,100427.41
2022-08-03T00:23:21.621Z,100431.77
2022-08-03T00:25:49.685Z,100438.05
2022-08-03T00:28:20.355Z,100436.36
2022-08-03T00:30:48.960Z,100432.89
2022-08-03T00:33:18.675Z,100436.83
2022-08-03T00:35:50.461Z,100443.88
2022-08-03T00:38:21.259Z,100442.91
2022-08-03T00:40:49.604Z,100438.43
2022-08-03T00:43:18.264Z,100443.89
2022-08-03T00:45:46.835Z,100445.70
2022-08-03T00:48:29.478Z,100445.84
2022-08-03T00:51:01.722Z,100442.27
2022-08-03T00:53:35.486Z,100439.25
2022-08-03T00:56:03.665Z,100438.17
2022-08-03T00:58:31.650Z,100438.41
2022-08-03T01:01:00.061Z,100439.17
2022-08-03T01:03:35.019Z,100435.23
2022-08-03T01:06:15.604Z,100434.77
2022-08-03T01:08:52.629Z,100432.59
2022-08-03T01:12:00.066Z,100437.00
2022-08-03T01:14:51.228Z,100436.52
2022-08-03T01:17:44.229Z,100433.70
2022-08-03T01:20:17.209Z,100429.10
2022-08-03T01:23:06.403Z,100425.52
2022-08-03T01:26:03.954Z,100430.94
2022-08-03T01:29:09.031Z,100429.02
2022-08-03T01:32:59.231Z,100426.69
2022-08-03T01:34:52.352Z,100423.42
2022-08-03T01:37:27.475Z,100425.70
2022-08-03T01:39:58.581Z,100424.08
2022-08-03T01:42:29.249Z,100421.13
2022-08-03T01:45:00.127Z,100417.64
2022-08-03T01:47:29.644Z,100422.00
2022-08-03T01:49:59.268Z,100419.09
2022-08-03T01:52:34.243Z,100415.80
2022-08-03T01:55:04.270Z,100413.27
2022-08-03T01:57:33.995Z,100415.21
2022-08-03T02:00:24.239Z,100414.41
2022-08-03T02:02:57.036Z,100411.73
2022-08-03T02:05:29.711Z,100409.27
2022-08-03T02:07:59.745Z,100408.58
2022-08-03T02:10:36.008Z,100409.33
2022-08-03T02:13:07.450Z,100406.14
2022-08-03T02:15:37.992Z,100403.29
2022-08-03T02:18:08.933Z,100404.02
2022-08-03T02:20:40.245Z,100404.71
2022-08-03T02:23:08.905Z,100408.40
2022-08-03T02:25:43.690Z,100404.15
2022-08-03T02:28:16.645Z,100402.07
2022-08-03T02:30:54.654Z,100403.55
2022-08-03T02:33:28.825Z,100406.39
2022-08-03T02:35:58.138Z,100404.44
2022-08-03T02:38:31.389Z,100408.11
2022-08-03T02:41:01.227Z,100406.51
2022-08-03T02:44:05.394Z,100408.22
2022-08-03T02:46:21.316Z,100404.16
2022-08-03T02:48:54.861Z,100407.58
2022-08-03T02:51:25.008Z,100407.36
2022-08-03T02:53:55.499Z,100403.05
2022-08-03T02:56:26.014Z,100401.80
2022-08-03T02:58:55.703Z,100401.27
2022-08-03T03:01:27.434Z,100403.80
2022-08-03T03:03:57.812Z,100403.74
2022-08-03T03:06:27.521Z,100402.88
2022-08-03T03:08:59.934Z,100405.28
2022-08-03T03:11:33.995Z,100406.52
2022-08-03T03:14:03.179Z,100402.86
2022-08-03T03:16:32.315Z,100404.95
2022-08-03T03:19:02.933Z,100403.00
2022-08-03T03:21:33.255Z,100398.94
2022-08-03T03:24:02.647Z,100400.17
2022-08-03T03:26:31.163Z,100394.39
2022-08-03T03:28:59.510Z,100397.48
2022-08-03T03:31:27.925Z,100395.56
2022-08-03T03:34:00.161Z,100394.38
2022-08-03T03:36:28.667Z,100393.42
2022-08-03T03:38:57.596Z,100392.08
2022-08-03T03:41:25.841Z,100397.67
2022-08-03T03:44:01.091Z,100396.92
2022-08-03T03:46:29.755Z,100399.07
2022-08-03T03:48:57.894Z,100398.58
2022-08-03T03:51:26.036Z,100399.64
2022-08-03T03:54:02.288Z,100404.76
2022-08-03T03:56:40.206Z,100405.68
2022-08-03T03:59:12.304Z,100411.50
2022-08-03T04:01:46.822Z,100413.61
2022-08-03T04:04:58.178Z,100412.26
2022-08-03T04:07:46.282Z,100415.11
2022-08-03T04:10:42.401Z,100415.88
2022-08-03T04:13:15.306Z,100422.47
2022-08-03T04:15:48.281Z,100424.39
2022-08-03T04:18:19.299Z,100427.98
2022-08-03T04:20:50.243Z,100429.66
2022-08-03T04:23:21.462Z,100434.23
2022-08-03T04:25:55.991Z,100436.88
2022-08-03T04:28:31.070Z,100436.87
2022-08-03T04:31:02.464Z,100445.58
2022-08-03T04:33:34.822Z,100446.13
2022-08-03T04:36:08.009Z,100450.05
2022-08-03T04:38:40.838Z,100448.80
2022-08-03T04:41:10.651Z,100453.48
2022-08-03T04:43:40.968Z,100453.73
2022-08-03T04:46:11.244Z,100460.16
2022-08-03T04:48:43.516Z,100460.35
2022-08-03T04:51:13.754Z,100463.83
2022-08-03T04:53:45.818Z,100465.54
2022-08-03T04:56:16.994Z,100472.77
2022-08-03T04:58:49.121Z,100473.03
2022-08-03T05:01:21.263Z,100472.67
2022-08-03T05:04:11.628Z,100473.30
2022-08-03T05:06:48.010Z,100475.78
2022-08-03T05:09:45.997Z,100475.66
2022-08-03T05:12:08.140Z,100475.55
2022-08-03T05:14:38.907Z,100476.37
2022-08-03T05:17:08.753Z,100476.32
2022-08-03T05:19:37.102Z,100476.00
2022-08-03T05:22:06.194Z,100476.29
2022-08-03T05:24:34.137Z,100480.70
2022-08-03T05:27:04.629Z,100480.73
2022-08-03T05:29:32.731Z,100485.08
2022-08-03T05:32:07.785Z,100482.18
2022-08-03T05:34:36.556Z,100483.23
2022-08-03T05:37:04.842Z,100481.67
2022-08-03T05:39:33.753Z,100481.59
2022-08-03T05:42:03.622Z,100481.05
2022-08-03T05:44:32.364Z,100478.30
2022-08-03T05:47:00.872Z,100484.12
2022-08-03T05:49:29.096Z,100479.45
2022-08-03T05:52:00.027Z,100477.91
2022-08-03T05:54:55.373Z,100478.16
2022-08-03T05:57:26.531Z,100479.09
2022-08-03T05:59:58.520Z,100477.80
2022-08-03T06:02:27.392Z,100486.76
2022-08-03T06:04:55.531Z,100483.73
2022-08-03T06:07:23.741Z,100481.25
2022-08-03T06:10:34.581Z,100481.16
2022-08-03T06:12:41.692Z,100486.90
2022-08-03T06:15:11.179Z,100485.55
2022-08-03T06:17:50.692Z,100489.44
2022-08-03T06:20:28.469Z,100487.21
2022-08-03T06:23:01.027Z,100492.64
2022-08-03T06:25:29.599Z,100493.46
2022-08-03T06:27:57.858Z,100493.48
2022-08-03T06:30:26.944Z,100493.41
2022-08-03T06:32:55.239Z,100501.25
2022-08-03T06:35:23.290Z,100494.80
2022-08-03T06:37:52.799Z,100499.10
2022-08-03T06:40:34.826Z,100497.45
2022-08-03T06:43:04.068Z,100498.89
2022-08-03T06:45:33.334Z,100504.54
2022-08-03T06:48:04.378Z,100502.09
2022-08-03T06:50:40.123Z,100503.10
2022-08-03T06:53:18.294Z,100498.63
2022-08-03T06:55:54.677Z,100497.45
2022-08-03T06:58:23.676Z,100494.42
2022-08-03T07:00:51.682Z,100487.79
2022-08-03T07:03:19.823Z,100493.95
2022-08-03T07:05:51.506Z,100492.35
2022-08-03T07:08:19.610Z,100493.70
2022-08-03T07:11:02.324Z,100491.08
2022-08-03T07:13:30.865Z,100496.91
2022-08-03T07:15:58.948Z,100493.46
2022-08-03T07:18:29.480Z,100494.26
2022-08-03T07:20:58.650Z,100500.23
2022-08-03T07:23:26.832Z,100493.87
2022-08-03T07:25:54.992Z,100498.44
2022-08-03T07:28:23.078Z,100496.39
2022-08-03T07:30:51.179Z,100501.11
2022-08-03T07:33:19.138Z,100496.16
2022-08-03T07:35:47.203Z,100495.28
2022-08-03T07:38:15.200Z,100495.45
2022-08-03T07:40:46.250Z,100496.63
2022-08-03T07:43:14.626Z,100495.42
2022-08-03T07:45:44.338Z,100501.18
2022-08-03T07:48:12.779Z,100503.30
2022-08-03T07:50:41.156Z,100501.80
2022-08-03T07:53:09.354Z,100499.38
2022-08-03T07:55:37.475Z,100503.07
2022-08-03T07:58:12.618Z,100498.11
2022-08-03T08:00:40.940Z,100499.96
2022-08-03T08:03:08.917Z,100502.61
2022-08-03T08:05:37.711Z,100503.35
2022-08-03T08:08:07.126Z,100503.80
2022-08-03T08:10:41.978Z,100506.52
2022-08-03T08:13:29.440Z,100506.58
2022-08-03T08:16:00.937Z,100503.81
2022-08-03T08:18:32.346Z,100502.77
2022-08-03T08:21:08.918Z,100507.64
2022-08-03T08:23:43.112Z,100510.06
2022-08-03T08:26:13.966Z,100504.92
2022-08-03T08:28:44.558Z,100503.70
2022-08-03T08:31:14.984Z,100503.67
2022-08-03T08:34:03.046Z,100502.47
2022-08-03T08:36:35.457Z,100507.48
2022-08-03T08:39:04.113Z,100503.23
2022-08-03T08:41:34.989Z,100504.06
2022-08-03T08:44:04.216Z,100500.52
2022-08-03T08:46:33.757Z,100501.91
2022-08-03T08:49:03.804Z,100498.74
2022-08-03T08:51:54.249Z,100500.77
2022-08-03T08:54:33.911Z,100499.80
2022-08-03T08:57:21.345Z,100503.89
2022-08-03T09:00:14.568Z,100498.28
2022-08-03T09:02:44.767Z,100499.43
2022-08-03T09:05:31.481Z,100500.05
2022-08-03T09:08:08.772Z,100504.33
2022-08-03T09:10:36.867Z,100499.54
2022-08-03T09:13:05.616Z,100502.48
2022-08-03T09:15:34.393Z,100502.39
2022-08-03T09:18:04.791Z,100505.18
2022-08-03T09:20:35.276Z,100501.52
2022-08-03T09:23:26.219Z,100497.58
2022-08-03T09:26:01.729Z,100499.27
2022-08-03T09:29:00.544Z,100503.20
2022-08-03T09:31:43.345Z,100500.88
2022-08-03T09:34:20.210Z,100504.15
2022-08-03T09:36:51.938Z,100503.30
2022-08-03T09:39:41.131Z,100494.50
2022-08-03T09:42:23.647Z,100502.14
2022-08-03T09:44:55.643Z,100502.05
2022-08-03T09:47:33.715Z,100493.50
2022-08-03T09:50:04.750Z,100494.05
2022-08-03T09:52:49.097Z,100492.29
2022-08-03T09:56:33.878Z,100494.05
2022-08-03T09:58:14.534Z,100503.05
2022-08-03T10:01:01.307Z,100499.15
2022-08-03T10:03:46.945Z,100499.05
2022-08-03T10:06:29.327Z,100495.00
2022-08-03T10:09:21.537Z,100492.11
2022-08-03T10:11:52.817Z,100495.21
2022-08-03T10:14:28.579Z,100490.80
2022-08-03T10:17:03.645Z,100495.71
2022-08-03T10:19:31.689Z,100495.16
2022-08-03T10:22:42.482Z,100488.42
2022-08-03T10:25:14.588Z,100487.33
2022-08-03T10:27:47.920Z,100490.44
2022-08-03T10:30:21.641Z,100489.48
2022-08-03T10:33:50.907Z,100488.48
2022-08-03T10:36:03.125Z,100488.71
2022-08-03T10:38:38.791Z,100489.53
2022-08-03T10:41:09.159Z,100492.95
2022-08-03T10:43:49.540Z,100490.30
2022-08-03T10:46:23.275Z,100487.48
2022-08-03T10:48:58.484Z,100485.15
2022-08-03T10:51:32.415Z,100482.52
2022-08-03T10:54:01.765Z,100489.70
2022-08-03T10:57:02.617Z,100487.35
2022-08-03T10:59:46.817Z,100483.30
2022-08-03T11:02:23.982Z,100479.16
2022-08-03T11:05:28.550Z,100480.74
2022-08-03T11:08:21.856Z,100474.19
2022-08-03T11:14:08.241Z,100474.58
2022-08-03T11:16:48.313Z,100475.58
2022-08-03T11:19:20.024Z,100475.45
2022-08-03T11:21:51.596Z,100471.16
2022-08-03T11:24:41.011Z,100476.34
2022-08-03T11:27:28.968Z,100475.60
2022-08-03T11:30:19.909Z,100472.84
2022-08-03T11:32:52.607Z,100469.04
2022-08-03T11:35:53.993Z,100468.20
2022-08-03T11:38:25.377Z,100468.52
2022-08-03T11:40:54.865Z,100470.69
2022-08-03T11:43:30.780Z,100467.42
2022-08-03T11:46:03.352Z,100463.00
2022-08-03T11:48:40.085Z,100462.24
2022-08-03T11:51:23.727Z,100464.83
2022-08-03T11:54:06.415Z,100460.77
2022-08-03T11:56:49.357Z,100458.20
2022-08-03T11:59:31.672Z,100460.52
2022-08-03T12:02:13.042Z,100458.42
2022-08-03T12:04:58.830Z,100456.09
2022-08-03T12:08:03.826Z,100453.89
2022-08-03T12:10:17.050Z,100451.66
2022-08-03T12:12:49.292Z,100446.17
2022-08-03T12:15:25.660Z,100443.06
2022-08-03T12:17:57.705Z,100442.30
2022-08-03T12:20:35.055Z,100444.27
2022-08-03T12:23:06.423Z,100437.61
2022-08-03T12:25:39.038Z,100440.76
2022-08-03T12:28:36.330Z,100435.09
2022-08-03T12:31:12.891Z,100438.07
2022-08-03T12:34:05.255Z,100437.84
2022-08-03T12:36:35.410Z,100435.70
2022-08-03T12:39:09.157Z,100434.77
2022-08-03T12:41:39.912Z,100432.35
2022-08-03T12:44:11.907Z,100437.13
2022-08-03T12:46:47.707Z,100430.69
2022-08-03T12:49:18.903Z,100427.63
2022-08-03T12:51:46.976Z,100427.33
2022-08-03T12:54:24.603Z,100425.31
2022-08-03T12:57:11.144Z,100420.81
2022-08-03T12:59:52.824Z,100419.55
2022-08-03T13:02:26.486Z,100422.92
2022-08-03T13:04:55.182Z,100425.41
2022-08-03T13:07:23.555Z,100426.55
2022-08-03T13:09:54.753Z,100422.55
2022-08-03T13:12:27.703Z,100422.13
2022-08-03T13:14:57.683Z,100424.02
2022-08-03T13:17:26.877Z,100418.45
2022-08-03T13:19:54.837Z,100415.78
2022-08-03T13:22:25.819Z,100419.50
2022-08-03T13:24:57.684Z,100415.20
2022-08-03T13:28:04.415Z,100415.09
2022-08-03T13:30:27.526Z,100411.02
2022-08-03T13:33:00.322Z,100408.43
2022-08-03T13:35:28.377Z,100413.45
2022-08-03T13:37:56.331Z,100410.00
2022-08-03T13:40:30.167Z,100409.05
2022-08-03T13:42:58.734Z,100407.52
2022-08-03T13:45:27.667Z,100403.10
2022-08-03T13:47:55.672Z,100400.17
2022-08-03T13:50:23.986Z,100401.64
2022-08-03T13:52:52.050Z,100407.28
2022-08-03T13:55:19.890Z,100402.95
2022-08-03T13:58:04.545Z,100402.48
2022-08-03T14:00:41.710Z,100398.19
2022-08-03T14:03:14.050Z,100404.15
2022-08-03T14:05:44.157Z,100402.15
2022-08-03T14:08:13.048Z,100404.62
2022-08-03T14:10:44.056Z,100402.88
2022-08-03T14:13:16.845Z,100399.20
2022-08-03T14:15:50.933Z,100395.55
2022-08-03T14:18:28.383Z,100395.45
2022-08-03T14:21:06.709Z,100390.08
2022-08-03T14:23:37.987Z,100390.30
2022-08-03T14:26:07.329Z,100384.55
2022-08-03T14:28:36.195Z,100384.71
2022-08-03T14:31:04.653Z,100381.11
2022-08-03T14:33:36.655Z,100379.95
2022-08-03T14:36:05.105Z,100379.40
2022-08-03T14:38:33.212Z,100378.14
2022-08-03T14:41:12.231Z,100375.76
2022-08-03T14:44:00.415Z,100375.48
2022-08-03T14:46:32.403Z,100370.73
2022-08-03T14:50:37.034Z,100372.02
2022-08-03T14:52:01.175Z,100372.25
2022-08-03T14:54:31.513Z,100367.48
2022-08-03T14:57:00.289Z,100368.56
2022-08-03T14:59:28.324Z,100363.42
2022-08-03T15:02:23.327Z,100363.95
2022-08-03T15:04:52.221Z,100362.05
2022-08-03T15:07:20.966Z,100359.23
2022-08-03T15:09:49.226Z,100361.92
2022-08-03T15:12:17.406Z,100359.00
2022-08-03T15:14:45.394Z,100357.39
2022-08-03T15:17:13.567Z,100363.96
2022-08-03T15:20:02.796Z,100360.36
2022-08-03T15:22:34.622Z,100355.31
2022-08-03T15:26:29.500Z,100355.83
2022-08-03T15:28:03.777Z,100357.34
2022-08-03T15:30:38.963Z,100359.45
2022-08-03T15:33:07.050Z,100358.06
2022-08-03T15:35:35.644Z,100359.88
2022-08-03T15:38:08.774Z,100359.93
2022-08-03T15:40:37.869Z,100357.15
2022-08-03T15:43:06.967Z,100358.81
2022-08-03T15:45:36.530Z,100355.30
2022-08-03T15:48:05.884Z,100355.55
2022-08-03T15:50:34.647Z,100352.30
2022-08-03T15:53:02.862Z,100352.55
2022-08-03T15:55:31.653Z,100347.05
2022-08-03T15:59:04.065Z,100346.27
2022-08-03T16:00:47.785Z,100346.89
2022-08-03T16:03:15.837Z,100346.08
2022-08-03T16:05:43.747Z,100341.52
2022-08-03T16:08:13.931Z,100337.68
2022-08-03T16:10:42.798Z,100336.70
2022-08-03T16:13:11.053Z,100337.05
2022-08-03T16:15:39.182Z,100341.80
2022-08-03T16:18:07.609Z,100339.89
2022-08-03T16:20:35.906Z,100341.28
2022-08-03T16:23:08.538Z,100336.29
2022-08-03T16:25:40.636Z,100339.98
2022-08-03T16:28:13.808Z,100339.28
2022-08-03T16:30:44.668Z,100340.21
2022-08-03T16:33:17.481Z,100338.96
2022-08-03T16:35:46.904Z,100338.60
2022-08-03T16:38:19.450Z,100340.46
2022-08-03T16:40:52.004Z,100338.58
2022-08-03T16:43:22.907Z,100339.90
2022-08-03T16:45:51.742Z,100341.38
2022-08-03T16:48:20.694Z,100337.50
2022-08-03T16:50:49.049Z,100340.76
2022-08-03T16:53:33.298Z,100341.06
2022-08-03T16:56:09.865Z,100340.98
2022-08-03T16:58:42.243Z,100339.31
2022-08-03T17:01:21.913Z,100341.73
2022-08-03T17:04:03.196Z,100342.59
2022-08-03T17:06:36.971Z,100340.23
2022-08-03T17:09:13.820Z,100340.85
2022-08-03T17:11:51.268Z,100343.52
2022-08-03T17:14:29.277Z,100344.08
2022-08-03T17:17:03.837Z,100346.59
2022-08-03T17:19:35.143Z,100346.46
2022-08-03T17:22:11.098Z,100348.02
2022-08-03T17:24:44.343Z,100347.23
2022-08-03T17:28:41.326Z,100349.86
2022-08-03T17:30:13.334Z,100350.37
2022-08-03T17:32:56.717Z,100349.88
2022-08-03T17:35:36.559Z,100350.59
2022-08-03T17:38:12.035Z,100352.83
2022-08-03T17:40:43.066Z,100354.23
2022-08-03T17:44:12.761Z,100355.04
2022-08-03T17:46:10.679Z,100362.73
2022-08-03T17:48:41.327Z,100363.95
2022-08-03T17:51:33.341Z,100366.78
2022-08-03T17:54:18.231Z,100372.83
2022-08-03T17:56:56.039Z,100373.80
2022-08-03T18:02:48.284Z,100378.88
2022-08-03T18:05:21.992Z,100377.22
2022-08-03T18:08:01.466Z,100380.79
2022-08-03T18:10:35.788Z,100376.71
2022-08-03T18:13:11.009Z,100375.46
2022-08-03T18:16:04.806Z,100376.40
2022-08-03T18:18:40.751Z,100377.59
2022-08-03T18:21:16.768Z,100378.25
2022-08-03T18:23:50.113Z,100381.09
2022-08-03T18:26:22.013Z,100382.73
2022-08-03T18:28:54.102Z,100383.55
2022-08-03T18:31:33.130Z,100388.47
2022-08-03T18:34:32.329Z,100385.04
2022-08-03T18:37:10.994Z,100388.66
2022-08-03T18:39:50.347Z,100389.55
2022-08-03T18:42:26.131Z,100391.67
2022-08-03T18:44:56.829Z,100392.05
2022-08-03T18:48:07.813Z,100396.27
2022-08-03T18:50:50.102Z,100399.41
2022-08-03T18:54:03.418Z,100392.02
2022-08-03T18:57:13.062Z,100390.83
2022-08-03T18:59:59.141Z,100389.10
2022-08-03T19:02:38.821Z,100392.99
2022-08-03T19:05:09.464Z,100393.36
2022-08-03T19:07:40.795Z,100390.11
2022-08-03T19:10:15.724Z,100391.50
2022-08-03T19:12:53.158Z,100388.91
2022-08-03T19:15:36.369Z,100394.98
2022-08-03T19:18:10.432Z,100392.23
2022-08-03T19:20:41.232Z,100391.88
2022-08-03T19:23:17.560Z,100394.88
2022-08-03T19:25:49.777Z,100399.73
2022-08-03T19:28:18.639Z,100400.81
2022-08-03T19:30:53.630Z,100398.19
2022-08-03T19:33:29.988Z,100399.86
2022-08-03T19:35:58.960Z,100398.61
2022-08-03T19:38:29.845Z,100400.46
2022-08-03T19:41:06.075Z,100403.23
2022-08-03T19:43:49.338Z,100401.20
2022-08-03T19:46:30.908Z,100400.05
2022-08-03T19:49:14.967Z,100398.92
2022-08-03T19:52:00.704Z,100405.23
2022-08-03T19:54:39.760Z,100405.88
2022-08-03T19:57:33.333Z,100408.67
2022-08-03T20:03:46.309Z,100413.52
2022-08-03T20:10:09.946Z,100408.54
2022-08-03T20:12:52.021Z,100409.55
2022-08-03T20:15:33.564Z,100414.72
2022-08-03T20:18:39.566Z,100412.63
2022-08-03T20:22:14.390Z,100412.83
2022-08-03T20:25:21.673Z,100412.27
2022-08-03T20:32:42.722Z,100417.14
2022-08-03T20:36:01.930Z,100417.34
2022-08-03T20:38:57.493Z,100413.89
2022-08-03T20:41:40.640Z,100415.44
2022-08-03T20:44:45.248Z,100418.09
2022-08-03T20:47:50.498Z,100419.92
2022-08-03T20:50:27.733Z,100416.53
2022-08-03T20:53:12.142Z,100415.39
2022-08-03T20:56:02.212Z,100415.48
2022-08-03T21:02:38.245Z,100414.92
2022-08-03T21:05:47.797Z,100417.09
2022-08-03T21:08:34.484Z,100419.88
2022-08-03T21:11:30.285Z,100422.15
2022-08-03T21:13:04.111Z,100377.36
2022-08-03T21:13:07.829Z,100410.52
2022-08-03T21:13:08.515Z,100408.10
2022-08-03T21:13:14.146Z,100415.83
2022-08-03T21:14:36.799Z,100421.27
2022-08-03T21:17:14.125Z,100424.19
2022-08-03T21:19:55.477Z,100423.04
2022-08-03T21:22:29.566Z,100423.98
2022-08-03T21:25:00.543Z,100426.20
2022-08-03T21:27:32.160Z,100428.63
2022-08-03T21:30:07.851Z,100426.91
2022-08-03T21:32:40.438Z,100429.98
2022-08-03T21:35:10.638Z,100426.73
2022-08-03T21:37:40.459Z,100427.35
2022-08-03T21:40:13.759Z,100425.45
2022-08-03T21:42:43.649Z,100428.35
2022-08-03T21:45:17.134Z,100430.08
2022-08-03T21:47:45.951Z,100427.66
2022-08-03T21:50:15.268Z,100424.75
2022-08-03T21:52:53.359Z,100424.94
2022-08-03T21:55:31.715Z,100423.79
2022-08-03T21:58:05.034Z,100426.58
2022-08-03T22:00:36.975Z,100424.16
2022-08-03T22:03:18.054Z,100426.55
2022-08-03T22:05:53.852Z,100423.82
2022-08-03T22:08:49.703Z,100423.89
2022-08-03T22:12:51.968Z,100430.42
2022-08-03T22:15:33.875Z,100429.39
2022-08-03T22:18:23.356Z,100429.20
2022-08-03T22:21:46.966Z,100433.55
2022-08-03T22:24:44.753Z,100428.21
2022-08-03T22:27:53.292Z,100427.98
2022-08-03T22:31:30.654Z,100430.55
2022-08-03T22:34:55.780Z,100427.73
2022-08-03T22:38:12.498Z,100430.98
2022-08-03T22:41:03.759Z,100429.00
2022-08-03T22:43:33.406Z,100429.66
2022-08-03T22:46:09.528Z,100430.65
2022-08-03T22:48:42.812Z,100432.73
2022-08-03T22:51:11.310Z,100428.60
2022-08-03T22:53:40.796Z,100431.83
2022-08-03T22:56:15.975Z,100427.55
2022-08-03T22:58:44.209Z,100429.23
2022-08-03T23:01:22.904Z,100431.24
2022-08-03T23:04:02.044Z,100431.02
2022-08-03T23:06:37.420Z,100427.86
2022-08-03T23:09:11.526Z,100427.23
2022-08-03T23:11:46.352Z,100428.71
2022-08-03T23:14:20.634Z,100426.48
2022-08-03T23:16:56.775Z,100427.30
2022-08-03T23:19:34.402Z,100418.46
2022-08-03T23:22:27.644Z,100423.86
2022-08-03T23:25:07.075Z,100420.25
2022-08-03T23:27:40.624Z,100421.52
2022-08-03T23:30:11.188Z,100420.85
2022-08-03T23:32:56.154Z,100422.34
2022-08-03T23:36:28.890Z,100421.91
2022-08-03T23:38:41.161Z,100422.95
2022-08-03T23:41:10.501Z,100421.84
2022-08-03T23:43:53.528Z,100424.77
2022-08-03T23:46:27.504Z,100420.83
2022-08-03T23:48:56.822Z,100423.40
2022-08-03T23:52:07.140Z,100423.17
2022-08-03T23:54:49.633Z,100427.68
2022-08-03T23:57:35.677Z,100425.48
